createdAt,value
2023-03-02T00:01:33.780Z,95238.03
2023-03-02T00:04:00.258Z,95238.39
2023-03-02T00:06:26.561Z,95233.70
2023-03-02T00:08:52.911Z,95238.16
2023-03-02T00:11:19.281Z,95238.48
2023-03-02T00:13:45.686Z,95234.30
2023-03-02T00:16:12.107Z,95236.97
2023-03-02T00:18:38.414Z,95227.59
2023-03-02T00:21:04.823Z,95232.41
2023-03-02T00:23:31.168Z,95229.00
2023-03-02T00:25:57.542Z,95214.48
2023-03-02T00:28:23.885Z,95219.63
2023-03-02T00:30:50.269Z,95220.91
2023-03-02T00:33:16.649Z,95221.37
2023-03-02T00:35:43.109Z,95222.79
2023-03-02T00:38:09.380Z,95214.23
2023-03-02T00:40:35.760Z,95201.83
2023-03-02T00:43:02.112Z,95202.75
2023-03-02T00:45:28.488Z,95196.80
2023-03-02T00:47:54.838Z,95196.44
2023-03-02T00:50:21.221Z,95192.58
2023-03-02T00:52:47.567Z,95189.64
2023-03-02T00:55:13.956Z,95187.06
2023-03-02T00:57:40.297Z,95187.89
2023-03-02T01:00:06.684Z,95182.05
2023-03-02T01:02:33.087Z,95182.51
2023-03-02T01:04:59.448Z,95183.80
2023-03-02T01:07:25.791Z,95176.53
2023-03-02T01:09:52.246Z,95171.02
2023-03-02T01:12:18.532Z,95170.55
2023-03-02T01:14:44.930Z,95169.73
2023-03-02T01:17:11.258Z,95167.16
2023-03-02T01:19:37.636Z,95162.13
2023-03-02T01:22:03.991Z,95161.67
2023-03-02T01:24:30.357Z,95163.06
2023-03-02T01:26:56.732Z,95166.45
2023-03-02T01:29:23.092Z,95169.95
2023-03-02T01:31:49.549Z,95173.36
2023-03-02T01:34:15.810Z,95169.63
2023-03-02T01:36:42.187Z,95167.05
2023-03-02T01:39:08.531Z,95169.50
2023-03-02T01:41:34.933Z,95158.96
2023-03-02T01:44:02.240Z,95150.88
2023-03-02T01:46:27.650Z,95152.16
2023-03-02T01:48:53.981Z,95159.42
2023-03-02T01:51:20.378Z,95155.66
2023-03-02T01:53:46.782Z,95149.35
2023-03-02T01:56:13.142Z,95149.72
2023-03-02T01:58:39.515Z,95152.75
2023-03-02T02:01:05.939Z,95144.27
2023-03-02T02:03:32.266Z,95145.13
2023-03-02T02:05:58.647Z,95140.90
2023-03-02T02:08:24.986Z,95146.52
2023-03-02T02:10:51.378Z,95148.98
2023-03-02T02:13:17.724Z,95149.09
2023-03-02T02:15:44.118Z,95148.36
2023-03-02T02:18:10.513Z,95149.55
2023-03-02T02:20:36.883Z,95152.71
2023-03-02T02:23:03.216Z,95156.08
2023-03-02T02:25:29.634Z,95163.00
2023-03-02T02:27:55.977Z,95158.66
2023-03-02T02:30:23.569Z,95155.75
2023-03-02T02:32:48.762Z,95150.59
2023-03-02T02:35:15.089Z,95156.20
2023-03-02T02:37:41.429Z,95148.95
2023-03-02T02:40:07.823Z,95144.85
2023-03-02T02:42:34.206Z,95146.47
2023-03-02T02:45:00.623Z,95145.18
2023-03-02T02:47:26.968Z,95148.25
2023-03-02T02:49:53.345Z,95147.52
2023-03-02T02:52:19.701Z,95145.77
2023-03-02T02:54:46.087Z,95143.66
2023-03-02T02:57:12.426Z,95146.70
2023-03-02T02:59:38.941Z,95137.81
2023-03-02T03:02:05.283Z,95140.02
2023-03-02T03:04:31.752Z,95142.04
2023-03-02T03:06:58.014Z,95139.93
2023-03-02T03:09:24.442Z,95132.06
2023-03-02T03:11:50.746Z,95132.06
2023-03-02T03:14:17.202Z,95124.44
2023-03-02T03:16:43.548Z,95133.95
2023-03-02T03:19:09.926Z,95127.61
2023-03-02T03:21:36.296Z,95128.06
2023-03-02T03:24:02.656Z,95133.58
2023-03-02T03:26:29.000Z,95129.72
2023-03-02T03:28:55.392Z,95133.67
2023-03-02T03:31:21.770Z,95131.93
2023-03-02T03:33:48.128Z,95135.69
2023-03-02T03:36:15.438Z,95127.73
2023-03-02T03:38:40.857Z,95129.72
2023-03-02T03:41:07.200Z,95134.96
2023-03-02T03:43:33.600Z,95134.17
2023-03-02T03:46:01.237Z,95132.05
2023-03-02T03:48:26.318Z,95134.17
2023-03-02T03:50:52.642Z,95135.55
2023-03-02T03:53:19.029Z,95132.98
2023-03-02T03:55:45.374Z,95134.17
2023-03-02T03:58:11.787Z,95133.34
2023-03-02T04:00:38.113Z,95134.96
2023-03-02T04:03:04.498Z,95136.02
2023-03-02T04:05:31.733Z,95136.84
2023-03-02T04:07:57.267Z,95134.03
2023-03-02T04:10:23.614Z,95139.51
2023-03-02T04:12:49.991Z,95134.36
2023-03-02T04:15:16.362Z,95130.99
2023-03-02T04:17:42.734Z,95132.74
2023-03-02T04:20:09.071Z,95135.31
2023-03-02T04:22:35.492Z,95134.03
2023-03-02T04:25:01.855Z,95128.05
2023-03-02T04:27:28.241Z,95127.23
2023-03-02T04:29:54.576Z,95126.07
2023-03-02T04:32:21.021Z,95127.23
2023-03-02T04:34:47.324Z,95121.72
2023-03-02T04:37:13.724Z,95120.56
2023-03-02T04:39:40.068Z,95124.78
2023-03-02T04:42:06.481Z,95127.23
2023-03-02T04:44:32.825Z,95128.05
2023-03-02T04:46:59.254Z,95130.99
2023-03-02T04:49:25.553Z,95136.02
2023-03-02T04:51:51.973Z,95131.79
2023-03-02T04:54:18.322Z,95136.47
2023-03-02T04:56:44.729Z,95135.19
2023-03-02T04:59:11.082Z,95135.55
2023-03-02T05:01:37.501Z,95138.22
2023-03-02T05:04:03.879Z,95133.44
2023-03-02T05:06:30.574Z,95134.96
2023-03-02T05:08:56.586Z,95141.89
2023-03-02T05:11:22.975Z,95136.38
2023-03-02T05:13:49.322Z,95137.20
2023-03-02T05:16:15.733Z,95134.62
2023-03-02T05:18:42.046Z,95140.94
2023-03-02T05:21:08.426Z,95141.77
2023-03-02T05:23:34.800Z,95141.30
2023-03-02T05:26:01.162Z,95140.84
2023-03-02T05:28:27.512Z,95146.32
2023-03-02T10:24:50.233Z,95151.02
2023-03-02T10:27:16.611Z,95157.30
2023-03-02T10:29:42.955Z,95150.23
2023-03-02T10:32:09.408Z,95147.90
2023-03-02T10:34:35.742Z,95119.70
2023-03-02T10:37:02.078Z,95119.70
2023-03-02T10:39:28.453Z,95139.65
2023-03-02T10:41:54.838Z,95116.66
2023-03-02T10:44:21.175Z,95116.66
2023-03-02T10:46:47.545Z,95122.97
2023-03-02T10:49:13.999Z,95131.61
2023-03-02T10:51:40.249Z,95131.44
2023-03-02T10:54:06.656Z,95132.77
2023-03-02T10:56:33.241Z,95109.84
2023-03-02T10:58:59.361Z,95121.47
2023-03-02T11:01:25.750Z,95100.28
2023-03-02T11:03:52.104Z,95100.28
2023-03-02T11:06:18.569Z,95119.06
2023-03-02T11:08:44.963Z,95100.20
2023-03-02T11:11:11.291Z,95110.93
2023-03-02T11:13:37.665Z,95098.66
2023-03-02T11:16:04.072Z,95097.98
2023-03-02T11:18:30.450Z,95097.98
2023-03-02T11:20:56.798Z,95109.78
2023-03-02T11:23:23.184Z,95096.01
2023-03-02T11:25:49.601Z,95074.68
2023-03-02T11:28:16.050Z,95074.68
2023-03-02T11:30:42.401Z,95073.50
2023-03-02T11:33:08.841Z,95090.52
2023-03-02T11:35:35.214Z,95094.69
2023-03-02T11:38:01.565Z,95094.69
2023-03-02T11:40:27.904Z,95088.81
2023-03-02T11:42:54.301Z,95083.17
2023-03-02T11:45:20.645Z,95081.78
2023-03-02T11:47:51.460Z,95070.66
2023-03-02T11:50:13.401Z,95070.66
2023-03-02T11:52:39.785Z,95094.33
2023-03-02T11:55:06.121Z,95075.50
2023-03-02T11:57:32.545Z,95087.44
2023-03-02T11:59:58.891Z,95060.41
2023-03-02T12:02:25.286Z,95081.70
2023-03-02T12:04:51.609Z,95081.70
2023-03-02T12:07:18.065Z,95089.45
2023-03-02T12:09:44.411Z,95092.14
2023-03-02T12:12:10.830Z,95092.14
2023-03-02T12:14:37.172Z,95084.29
2023-03-02T12:17:03.656Z,95084.29
2023-03-02T12:19:30.008Z,95088.05
2023-03-02T12:21:56.422Z,95069.80
2023-03-02T12:24:22.796Z,95088.05
2023-03-02T12:26:49.138Z,95088.05
2023-03-02T12:29:15.530Z,95086.65
2023-03-02T12:31:41.908Z,95071.80
2023-03-02T12:34:08.248Z,95081.23
2023-03-02T12:36:34.830Z,95081.23
2023-03-02T12:39:00.981Z,95077.30
2023-03-02T12:41:27.336Z,95084.07
2023-03-02T12:43:53.694Z,95079.38
2023-03-02T12:46:20.142Z,95077.16
2023-03-02T12:48:46.822Z,95081.70
2023-03-02T12:51:14.515Z,95085.36
2023-03-02T12:53:39.142Z,95068.34
2023-03-02T12:56:05.574Z,95057.72
2023-03-02T12:58:31.875Z,95057.72
2023-03-02T13:00:58.298Z,95068.15
2023-03-02T13:03:24.611Z,95073.88
2023-03-02T13:05:50.991Z,95069.91
2023-03-02T13:08:17.407Z,95069.91
2023-03-02T13:10:43.794Z,95068.36
2023-03-02T13:13:10.124Z,95068.05
2023-03-02T13:15:36.480Z,95074.03
2023-03-02T13:18:02.913Z,95066.14
2023-03-02T13:20:29.286Z,95064.78
2023-03-02T13:22:55.623Z,95064.78
2023-03-02T13:25:22.029Z,95059.52
2023-03-02T13:27:48.407Z,95040.98
2023-03-02T13:30:14.780Z,95040.98
2023-03-02T13:32:41.103Z,95043.71
2023-03-02T13:35:07.475Z,95016.91
2023-03-02T13:37:33.865Z,95016.91
2023-03-02T13:40:00.245Z,95040.30
2023-03-02T13:42:26.577Z,95037.81
2023-03-02T13:44:53.021Z,95020.02
2023-03-02T13:47:19.336Z,95020.02
2023-03-02T13:49:45.747Z,95029.68
2023-03-02T13:52:12.360Z,95022.30
2023-03-02T13:54:38.717Z,95032.59
2023-03-02T13:57:05.041Z,95032.45
2023-03-02T13:59:31.405Z,95032.45
2023-03-02T14:01:57.751Z,95029.52
2023-03-02T14:04:24.307Z,95035.31
2023-03-02T14:06:50.553Z,95016.97
2023-03-02T14:09:16.906Z,95015.61
2023-03-02T14:11:43.248Z,95015.61
2023-03-02T14:14:09.633Z,95020.23
2023-03-02T14:16:35.988Z,95030.91
2023-03-02T14:19:02.376Z,95030.77
2023-03-02T14:21:28.759Z,95024.31
2023-03-02T14:23:55.135Z,95020.91
2023-03-02T14:26:21.474Z,95022.20
2023-03-02T14:28:53.647Z,95016.50
2023-03-02T14:31:14.241Z,95003.85
2023-03-02T14:33:40.617Z,95025.39
2023-03-02T14:36:06.954Z,95026.94
2023-03-02T14:38:33.330Z,95028.12
2023-03-02T14:40:59.694Z,95023.42
2023-03-02T14:43:26.043Z,95015.00
2023-03-02T14:45:52.440Z,95021.55
2023-03-02T14:48:18.827Z,95018.84
2023-03-02T14:50:45.151Z,95026.00
2023-03-02T14:53:11.576Z,95020.02
2023-03-02T14:55:37.931Z,95014.61
2023-03-02T14:58:04.303Z,95018.48
2023-03-02T15:00:30.641Z,95021.77
2023-03-02T15:02:57.064Z,95016.82
2023-03-02T15:05:23.391Z,95017.29
2023-03-02T15:07:49.775Z,95016.97
2023-03-02T15:10:16.105Z,95007.09
2023-03-02T15:12:42.499Z,95007.09
2023-03-02T15:15:08.833Z,95025.64
2023-03-02T15:17:35.216Z,95025.64
2023-03-02T15:20:01.574Z,95029.87
2023-03-02T15:22:27.943Z,94999.23
2023-03-02T15:24:54.276Z,95018.19
2023-03-02T15:27:20.660Z,95027.19
2023-03-02T15:29:47.017Z,95032.81
2023-03-02T15:32:13.408Z,95032.59
2023-03-02T15:34:39.735Z,95026.61
2023-03-02T15:37:06.179Z,95027.69
2023-03-02T15:39:32.570Z,95026.97
2023-03-02T15:41:59.090Z,95030.02
2023-03-02T15:44:25.433Z,95027.33
2023-03-02T15:46:51.951Z,95042.56
2023-03-02T15:49:18.170Z,95047.73
2023-03-02T15:51:44.553Z,95051.59
2023-03-02T15:54:10.899Z,95051.59
2023-03-02T15:56:43.991Z,95049.88
2023-03-02T15:59:03.611Z,95046.00
2023-03-02T16:01:30.064Z,95042.70
2023-03-02T16:03:56.404Z,95061.81
2023-03-02T16:06:22.787Z,95044.03
2023-03-02T16:08:49.126Z,95049.66
2023-03-02T16:11:17.739Z,95051.16
2023-03-02T16:13:41.841Z,95053.53
2023-03-02T16:16:08.298Z,95053.53
2023-03-02T16:18:34.567Z,95063.95
2023-03-02T16:21:00.946Z,95052.23
2023-03-02T16:23:27.295Z,95043.09
2023-03-02T16:25:53.709Z,95061.95
2023-03-02T16:28:20.050Z,95055.50
2023-03-02T16:30:46.427Z,95050.59
2023-03-02T16:35:55.042Z,95065.13
2023-03-02T16:38:21.460Z,95065.13
2023-03-02T16:40:47.810Z,95067.14
2023-03-02T16:43:14.187Z,95076.03
2023-03-02T16:45:41.684Z,95076.03
2023-03-02T16:48:06.924Z,95071.58
2023-03-02T16:50:33.280Z,95076.77
2023-03-02T16:52:59.714Z,95053.58
2023-03-02T16:55:26.090Z,95065.55
2023-03-02T16:57:52.456Z,95084.26
2023-03-02T17:00:18.787Z,95084.26
2023-03-02T17:02:45.172Z,95082.50
2023-03-02T17:05:11.517Z,95086.75
2023-03-02T17:07:37.902Z,95069.41
2023-03-02T17:10:04.244Z,95071.41
2023-03-02T17:12:30.640Z,95071.41
2023-03-02T17:17:42.289Z,95082.05
2023-03-02T17:20:08.636Z,95086.04
2023-03-02T17:22:35.040Z,95090.03
2023-03-02T17:25:02.903Z,95093.20
2023-03-02T17:27:27.763Z,95087.13
2023-03-02T17:29:54.104Z,95084.55
2023-03-02T17:32:20.586Z,95100.36
2023-03-02T17:34:46.833Z,95091.11
2023-03-02T17:37:13.230Z,95084.08
2023-03-02T17:39:39.574Z,95084.08
2023-03-02T17:42:05.984Z,95086.33
2023-03-02T17:44:32.313Z,95068.18
2023-03-02T17:46:58.747Z,95096.14
2023-03-02T17:49:25.094Z,95099.80
2023-03-02T17:51:51.490Z,95094.06
2023-03-02T17:54:17.840Z,95087.02
2023-03-02T17:56:44.350Z,95087.02
2023-03-02T17:59:10.770Z,95091.03
2023-03-02T18:01:37.160Z,95091.03
2023-03-02T18:04:03.518Z,95100.39
2023-03-02T18:06:29.878Z,95095.12
2023-03-02T18:08:56.228Z,95089.50
2023-03-02T18:11:22.618Z,95089.50
2023-03-02T18:13:48.968Z,95080.01
2023-03-02T18:16:15.455Z,95083.30
2023-03-02T18:18:41.704Z,95083.30
2023-03-02T18:21:08.123Z,95087.16
2023-03-02T18:23:34.461Z,95081.89
2023-03-02T18:26:00.832Z,95079.45
2023-03-02T18:28:27.233Z,95079.45
2023-03-02T18:30:53.594Z,95086.35
2023-03-02T18:33:19.980Z,95083.55
2023-03-02T18:35:46.355Z,95077.44
2023-03-02T18:38:12.704Z,95077.44
2023-03-02T18:40:39.088Z,95080.61
2023-03-02T18:43:05.441Z,95085.77
2023-03-02T18:45:31.829Z,95078.14
2023-03-02T18:47:58.168Z,95078.14
2023-03-02T18:50:24.601Z,95083.76
2023-03-02T18:52:50.964Z,95064.46
2023-03-02T18:55:17.345Z,95064.46
2023-03-02T18:57:43.729Z,95077.23
2023-03-02T19:00:10.115Z,95081.78
2023-03-02T19:02:36.457Z,95083.54
2023-03-02T19:05:02.928Z,95084.36
2023-03-02T19:07:29.267Z,95090.81
2023-03-02T19:09:57.003Z,95086.11
2023-03-02T19:12:22.007Z,95087.64
2023-03-02T19:14:48.412Z,95084.37
2023-03-02T19:17:14.755Z,95084.37
2023-03-02T19:19:43.502Z,95067.38
2023-03-02T19:22:07.487Z,95075.13
2023-03-02T19:24:33.910Z,95075.13
2023-03-02T19:27:00.270Z,95078.86
2023-03-02T19:29:26.660Z,95070.63
2023-03-02T19:31:53.080Z,95070.63
2023-03-02T19:34:19.384Z,95085.78
2023-03-02T19:36:45.720Z,95090.11
2023-03-02T19:39:12.125Z,95082.38
2023-03-02T19:41:38.466Z,95083.67
2023-03-02T19:44:04.846Z,95085.17
2023-03-02T19:46:31.181Z,95069.83
2023-03-02T19:48:57.583Z,95089.62
2023-03-02T19:51:23.927Z,95087.05
2023-03-02T19:53:50.315Z,95087.62
2023-03-02T19:56:16.639Z,95088.08
2023-03-02T19:58:43.029Z,95089.50
2023-03-02T20:01:10.997Z,95089.50
2023-03-02T20:03:35.795Z,95085.87
2023-03-02T20:06:02.146Z,95085.87
2023-03-02T20:08:28.592Z,95091.03
2023-03-02T20:10:54.893Z,95091.13
2023-03-02T20:13:21.291Z,95083.78
2023-03-02T20:15:47.644Z,95081.89
2023-03-02T20:18:14.025Z,95083.64
2023-03-02T20:20:40.348Z,95085.06
2023-03-02T20:23:06.746Z,95085.06
2023-03-02T20:25:33.097Z,95083.88
2023-03-02T20:27:59.492Z,95086.45
2023-03-02T20:30:25.839Z,95089.49
2023-03-02T20:32:52.243Z,95084.11
2023-03-02T20:35:18.615Z,95076.84
2023-03-02T20:37:44.999Z,95081.17
2023-03-02T20:40:11.337Z,95080.84
2023-03-02T20:42:37.731Z,95070.18
2023-03-02T20:45:04.145Z,95073.12
2023-03-02T20:47:30.479Z,95072.39
2023-03-02T20:49:56.870Z,95071.11
2023-03-02T20:52:23.233Z,95071.93
2023-03-02T20:54:49.627Z,95069.59
2023-03-02T20:57:15.985Z,95068.77
2023-03-02T20:59:42.375Z,95069.27
2023-03-02T21:02:08.704Z,95069.27
2023-03-02T21:04:35.101Z,95067.15
2023-03-02T21:07:01.462Z,95067.15
2023-03-02T21:09:28.939Z,95063.52
2023-03-02T21:11:55.284Z,95063.52
2023-03-02T21:14:21.700Z,95060.45
2023-03-02T21:16:48.066Z,95058.70
2023-03-02T21:19:14.469Z,95056.72
2023-03-02T21:21:42.227Z,95058.94
2023-03-02T21:24:07.183Z,95054.24
2023-03-02T21:26:33.541Z,95054.24
2023-03-02T21:28:59.932Z,95052.63
2023-03-02T21:31:26.330Z,95050.16
2023-03-02T21:33:52.678Z,95051.80
2023-03-02T21:36:19.024Z,95050.62
2023-03-02T21:38:45.420Z,95044.64
2023-03-02T21:41:11.794Z,95046.53
2023-03-02T21:43:38.151Z,95043.48
2023-03-02T21:46:04.520Z,95044.41
2023-03-02T21:48:30.895Z,95043.59
2023-03-02T21:50:57.259Z,95036.82
2023-03-02T21:53:25.348Z,95043.59
2023-03-02T21:55:50.030Z,95040.22
2023-03-02T21:58:16.437Z,95039.63
2023-03-02T22:00:42.812Z,95041.25
2023-03-02T22:03:09.238Z,95039.63
2023-03-02T22:05:35.594Z,95037.88
2023-03-02T22:08:01.979Z,95034.95
2023-03-02T22:10:28.348Z,95032.01
2023-03-02T22:12:54.734Z,95028.28
2023-03-02T22:15:21.081Z,95023.13
2023-03-02T22:17:47.487Z,95025.80
2023-03-02T22:20:13.836Z,95026.63
2023-03-02T22:22:40.229Z,95028.73
2023-03-02T22:25:06.573Z,95022.08
2023-03-02T22:27:32.976Z,95019.50
2023-03-02T22:30:00.292Z,95020.42
2023-03-02T22:32:25.808Z,95021.36
2023-03-02T22:34:52.176Z,95011.98
2023-03-02T22:37:18.543Z,95012.80
2023-03-02T22:39:44.943Z,95009.90
2023-03-02T22:42:11.328Z,95005.31
2023-03-02T22:44:37.694Z,95006.14
2023-03-02T22:47:04.067Z,95013.86
2023-03-02T22:49:30.422Z,95011.65
2023-03-02T22:51:56.873Z,95003.56
2023-03-02T22:54:23.208Z,95004.98
2023-03-02T22:56:49.604Z,94999.84
2023-03-02T22:59:15.950Z,95001.69
2023-03-02T23:01:42.385Z,95000.07
2023-03-02T23:04:08.809Z,94998.29
2023-03-02T23:06:35.127Z,94993.63
2023-03-02T23:09:01.460Z,94994.42
2023-03-02T23:11:27.884Z,94986.84
2023-03-02T23:13:54.237Z,94989.88
2023-03-02T23:16:20.643Z,94987.30
2023-03-02T23:18:46.992Z,94989.05
2023-03-02T23:21:13.388Z,94990.34
2023-03-02T23:23:39.743Z,94985.78
2023-03-02T23:26:06.133Z,94984.83
2023-03-02T23:28:32.476Z,94986.25
2023-03-02T23:30:58.879Z,94980.28
2023-03-02T23:33:25.236Z,94980.41
2023-03-02T23:35:51.637Z,94974.44
2023-03-02T23:38:18.012Z,94976.05
2023-03-02T23:40:44.400Z,94968.69
2023-03-02T23:43:10.763Z,94970.67
2023-03-02T23:45:37.152Z,94965.99
2023-03-02T23:48:03.488Z,94960.98
2023-03-02T23:50:29.871Z,94961.30
2023-03-02T23:52:56.217Z,94961.44
2023-03-02T23:55:22.614Z,94959.23
2023-03-02T23:57:48.956Z,94954.18
